Time;durP1;ratioP1;P1;durP2;ratioP2;P2;SDS_P1;SDS_P2;PMS_P1;PMS_P2;Temp;Humidity;BMP_temperature;BMP_pressure;BME280_temperature;BME280_humidity;BME280_pressure;Samples;Min_cycle;Max_cycle;Signal;HPM_P1;HPM_P2
2021/11/11 00:01:26;;;;;;;29.67;16.25;;;;;;;6.53;84.45;102390.53;5032052;28;20038;-46
2021/11/11 00:03:53;;;;;;;30.35;16.63;;;;;;;6.52;84.25;102386.19;5031674;28;20046;-48
2021/11/11 00:06:21;;;;;;;29.80;19.33;;;;;;;6.55;85.07;102385.78;5031302;28;20057;-48
2021/11/11 00:08:50;;;;;;;27.25;17.08;;;;;;;6.60;84.77;102386.81;5031786;28;20049;-47
2021/11/11 00:11:17;;;;;;;34.13;18.05;;;;;;;6.63;84.32;102382.88;5031927;28;20049;-47
2021/11/11 00:13:45;;;;;;;25.00;16.10;;;;;;;6.63;83.37;102372.03;5031317;28;20041;-49
2021/11/11 00:16:12;;;;;;;25.73;15.27;;;;;;;6.61;83.14;102372.25;5032076;28;20042;-47
2021/11/11 00:18:40;;;;;;;25.40;15.10;;;;;;;6.58;82.78;102363.69;5031476;28;20088;-47
2021/11/11 00:21:08;;;;;;;28.88;16.95;;;;;;;6.54;83.57;102367.84;5018122;28;20049;-48
2021/11/11 00:23:35;;;;;;;25.58;15.98;;;;;;;6.51;83.78;102354.72;5031269;28;20037;-50
2021/11/11 00:26:03;;;;;;;26.38;15.77;;;;;;;6.48;84.09;102342.41;5031272;28;20048;-48
2021/11/11 00:28:31;;;;;;;26.17;16.15;;;;;;;6.45;83.56;102339.28;5031966;28;20532;-46
2021/11/11 00:30:59;;;;;;;28.45;16.20;;;;;;;6.45;83.60;102336.59;5031876;28;20045;-47
2021/11/11 00:33:27;;;;;;;23.42;15.10;;;;;;;6.42;83.84;102335.09;5030046;28;20492;-48
2021/11/11 00:35:54;;;;;;;24.40;15.07;;;;;;;6.40;83.27;102339.91;5034042;28;20049;-48
2021/11/11 00:38:22;;;;;;;24.63;16.08;;;;;;;6.39;82.53;102340.91;5035089;28;20033;-46
2021/11/11 00:40:50;;;;;;;24.70;15.23;;;;;;;6.34;83.57;102343.41;5035211;28;20488;-47
2021/11/11 00:43:19;;;;;;;26.02;16.50;;;;;;;6.32;83.80;102331.94;5035461;28;20029;-49
2021/11/11 00:45:47;;;;;;;28.67;16.52;;;;;;;6.31;84.13;102339.22;5034195;28;20053;-49
2021/11/11 00:48:14;;;;;;;26.75;16.15;;;;;;;6.38;84.33;102331.97;5019609;28;20036;-49
2021/11/11 00:50:43;;;;;;;27.65;16.90;;;;;;;6.51;84.40;102338.47;5035093;28;20095;-48
2021/11/11 00:53:10;;;;;;;24.95;16.23;;;;;;;6.62;84.36;102337.88;5033103;28;20484;-47
2021/11/11 00:55:38;;;;;;;26.17;15.75;;;;;;;6.73;83.69;102331.84;5035315;28;20096;-47
2021/11/11 00:58:13;;;;;;;27.65;16.45;;;;;;;6.80;83.07;102324.56;5033397;28;20041;-49
2021/11/11 01:00:41;;;;;;;27.08;16.13;;;;;;;6.79;81.99;102335.63;5034158;28;20057;-48
2021/11/11 01:03:10;;;;;;;26.92;16.83;;;;;;;6.75;82.98;102337.91;5034600;28;20087;-48
2021/11/11 01:05:39;;;;;;;30.10;16.10;;;;;;;6.78;82.78;102332.09;5034402;28;20040;-47
2021/11/11 01:08:07;;;;;;;25.65;15.65;;;;;;;6.80;82.01;102335.41;5033279;28;20446;-48
2021/11/11 01:10:35;;;;;;;28.02;16.23;;;;;;;6.78;82.36;102342.06;5034159;28;20049;-48
2021/11/11 01:13:04;;;;;;;29.80;15.23;;;;;;;6.76;82.04;102341.47;5035192;28;20042;-48
2021/11/11 01:15:33;;;;;;;23.05;14.98;;;;;;;6.77;82.68;102340.41;5034723;28;20045;-47
2021/11/11 01:18:03;;;;;;;26.58;15.07;;;;;;;6.80;82.16;102342.69;5034272;28;20037;-48
2021/11/11 01:20:32;;;;;;;25.98;16.33;;;;;;;6.81;82.57;102347.09;5033553;28;20400;-48
2021/11/11 01:22:59;;;;;;;28.10;16.88;;;;;;;6.78;81.87;102348.34;5034336;28;20046;-48
2021/11/11 01:25:29;;;;;;;26.23;16.80;;;;;;;6.72;82.12;102349.16;5034182;28;20099;-48
2021/11/11 01:27:58;;;;;;;25.25;16.02;;;;;;;6.66;82.02;102354.53;5024421;28;20416;-47
2021/11/11 01:30:30;;;;;;;27.15;17.00;;;;;;;6.58;81.59;102350.16;5033644;28;20050;-47
2021/11/11 01:33:05;;;;;;;28.20;16.27;;;;;;;6.56;82.55;102349.50;5033313;28;20096;-45
2021/11/11 01:35:33;;;;;;;26.75;16.73;;;;;;;6.59;82.47;102344.53;5032257;28;20052;-48
2021/11/11 01:38:03;;;;;;;26.67;16.73;;;;;;;6.63;83.25;102336.81;5033468;28;20494;-48
2021/11/11 01:40:32;;;;;;;24.90;17.52;;;;;;;6.68;82.38;102330.81;5033332;28;20136;-47
2021/11/11 01:43:03;;;;;;;26.30;17.60;;;;;;;6.70;82.21;102337.69;5033254;28;20038;-48
2021/11/11 01:45:34;;;;;;;28.73;17.30;;;;;;;6.71;82.42;102336.66;5032425;28;20538;-49
2021/11/11 01:48:09;;;;;;;28.42;18.27;;;;;;;6.71;81.65;102339.38;5032165;28;20057;-47
2021/11/11 01:50:38;;;;;;;27.50;17.55;;;;;;;6.72;81.88;102337.47;5032315;28;20499;-48
2021/11/11 01:53:09;;;;;;;29.95;18.60;;;;;;;6.73;81.77;102337.25;5034049;28;20050;-45
2021/11/11 01:55:40;;;;;;;27.80;18.40;;;;;;;6.73;81.52;102342.69;5032748;28;20133;-47
2021/11/11 01:58:08;;;;;;;30.30;18.83;;;;;;;6.71;82.10;102336.66;5033947;28;20045;-47
2021/11/11 02:00:47;;;;;;;29.40;19.27;;;;;;;6.70;81.49;102334.97;5032692;28;20571;-48
2021/11/11 02:03:22;;;;;;;29.35;18.15;;;;;;;6.68;81.98;102336.22;5032676;28;20045;-47
2021/11/11 02:05:57;;;;;;;30.08;19.23;;;;;;;6.65;81.92;102332.03;5032535;28;20400;-48
2021/11/11 02:08:53;;;;;;;31.42;18.92;;;;;;;6.63;81.54;102334.13;5032362;28;20057;-48
2021/11/11 02:11:28;;;;;;;28.73;19.45;;;;;;;6.65;82.61;102326.63;5032974;28;20152;-49
2021/11/11 02:13:55;;;;;;;29.67;19.42;;;;;;;6.71;82.40;102325.81;5033597;28;20033;-48
2021/11/11 02:16:23;;;;;;;32.30;21.10;;;;;;;6.73;82.60;102323.72;5033738;28;20038;-48
2021/11/11 02:18:51;;;;;;;32.03;19.92;;;;;;;6.76;82.08;102326.03;5031006;28;20053;-48
2021/11/11 02:21:20;;;;;;;30.83;20.05;;;;;;;6.82;82.83;102325.19;5031906;28;20455;-48
2021/11/11 02:23:58;;;;;;;32.10;21.73;;;;;;;6.83;82.25;102324.19;5032284;28;20050;-47
2021/11/11 02:26:40;;;;;;;33.75;21.85;;;;;;;6.87;82.54;102319.16;5032330;28;20045;-50
2021/11/11 02:29:37;;;;;;;38.63;21.75;;;;;;;6.88;81.78;102318.13;5029263;28;20052;-48
2021/11/11 02:32:06;;;;;;;31.73;20.70;;;;;;;6.86;82.54;102317.50;5025951;28;20389;-49
2021/11/11 02:34:39;;;;;;;35.83;21.00;;;;;;;6.89;82.68;102314.38;5030576;28;20069;-51
2021/11/11 02:37:07;;;;;;;33.90;20.67;;;;;;;6.90;82.21;102309.78;5027786;28;20038;-47
2021/11/11 02:40:05;;;;;;;31.17;20.15;;;;;;;6.92;82.12;102310.41;4997268;28;20046;-45
2021/11/11 02:42:38;;;;;;;32.58;20.95;;;;;;;6.92;82.23;102311.25;5009698;28;20045;-46
2021/11/11 02:45:14;;;;;;;36.53;22.55;;;;;;;6.89;82.06;102313.56;5002724;28;20162;-49
2021/11/11 02:47:44;;;;;;;37.30;22.63;;;;;;;6.87;82.24;102312.91;5013883;28;20136;-49
2021/11/11 02:50:13;;;;;;;36.85;23.45;;;;;;;6.81;82.41;102315.41;5012650;28;20045;-48
2021/11/11 02:52:42;;;;;;;42.80;23.25;;;;;;;6.81;82.22;102312.72;5014202;28;20041;-50
2021/11/11 02:55:11;;;;;;;35.05;21.90;;;;;;;6.78;82.48;102313.13;5016972;28;20073;-49
2021/11/11 02:57:42;;;;;;;36.85;23.77;;;;;;;6.81;82.51;102312.72;5013517;28;20067;-50
2021/11/11 03:00:30;;;;;;;34.92;22.90;;;;;;;6.83;82.29;102324.19;5030208;28;20038;-48
2021/11/11 03:02:58;;;;;;;35.10;23.35;;;;;;;6.83;82.33;102318.75;5028937;28;20093;-45
2021/11/11 03:05:34;;;;;;;34.30;22.13;;;;;;;6.81;82.64;102320.84;5016507;28;20068;-47
2021/11/11 03:08:06;;;;;;;36.70;22.67;;;;;;;6.80;82.70;102311.03;5031635;28;20057;-46
2021/11/11 03:10:39;;;;;;;36.45;22.73;;;;;;;6.81;83.03;102307.28;5031809;28;20037;-48
2021/11/11 03:13:07;;;;;;;32.88;21.27;;;;;;;6.82;82.49;102302.69;5030003;28;20136;-46
2021/11/11 03:15:36;;;;;;;33.03;22.75;;;;;;;6.79;82.78;102303.13;5031331;28;20049;-49
2021/11/11 03:18:05;;;;;;;38.47;23.83;;;;;;;6.74;82.89;102308.31;5030874;28;20041;-47
2021/11/11 03:20:33;;;;;;;34.83;21.60;;;;;;;6.71;83.64;102300.59;5032086;28;20060;-49
2021/11/11 03:23:02;;;;;;;37.65;22.92;;;;;;;6.70;83.54;102307.88;5032227;28;20404;-48
2021/11/11 03:25:31;;;;;;;34.25;22.50;;;;;;;6.76;83.84;102314.38;5015065;28;20781;-45
2021/11/11 03:28:00;;;;;;;36.70;22.73;;;;;;;6.77;83.78;102308.72;5031289;28;20050;-48
2021/11/11 03:30:33;;;;;;;33.97;22.17;;;;;;;6.83;83.37;102307.91;5030892;28;20052;-48
2021/11/11 03:33:03;;;;;;;37.35;22.00;;;;;;;6.86;83.67;102305.84;5029991;28;20057;-49
2021/11/11 03:35:37;;;;;;;37.92;23.38;;;;;;;6.86;82.72;102313.97;5030949;28;20500;-48
2021/11/11 03:38:08;;;;;;;34.70;21.58;;;;;;;6.88;83.45;102309.16;5031396;28;20045;-47
2021/11/11 03:40:41;;;;;;;33.85;21.85;;;;;;;6.91;83.41;102304.16;5029375;28;20111;-48
2021/11/11 03:43:14;;;;;;;34.72;21.30;;;;;;;6.92;83.21;102316.66;5030876;28;20103;-48
2021/11/11 03:45:48;;;;;;;34.60;21.43;;;;;;;6.93;82.63;102312.09;5030864;28;20053;-45
2021/11/11 03:48:18;;;;;;;35.25;22.88;;;;;;;6.88;82.73;102314.56;5031186;28;20053;-48
2021/11/11 03:50:45;;;;;;;37.35;23.35;;;;;;;6.82;83.41;102306.22;5030410;28;20427;-47
2021/11/11 03:53:13;;;;;;;34.78;22.40;;;;;;;6.78;83.00;102305.00;5030680;28;20412;-45
2021/11/11 03:55:42;;;;;;;41.42;24.23;;;;;;;6.74;82.58;102306.44;5031117;28;20281;-48
2021/11/11 03:58:15;;;;;;;35.70;21.73;;;;;;;6.70;83.42;102313.31;5030693;28;20049;-48
2021/11/11 04:00:45;;;;;;;35.80;23.17;;;;;;;6.66;83.54;102306.63;5030474;28;20065;-47
2021/11/11 04:03:14;;;;;;;37.60;22.45;;;;;;;6.63;83.64;102315.16;5030556;28;20081;-45
2021/11/11 04:05:43;;;;;;;39.33;23.80;;;;;;;6.66;83.53;102311.22;5031193;28;20095;-45
2021/11/11 04:08:13;;;;;;;39.58;23.40;;;;;;;6.66;83.78;102314.75;5031028;28;20061;-49
2021/11/11 04:10:43;;;;;;;39.17;23.67;;;;;;;6.69;84.05;102316.22;5035777;28;20037;-48
2021/11/11 04:13:18;;;;;;;36.70;22.27;;;;;;;6.71;84.00;102320.41;5034072;28;20065;-46
2021/11/11 04:15:46;;;;;;;36.55;21.70;;;;;;;6.80;84.65;102316.44;5035680;28;20496;-45
2021/11/11 04:18:14;;;;;;;35.17;21.23;;;;;;;6.90;84.30;102312.50;5034769;28;20049;-45
2021/11/11 04:20:42;;;;;;;38.10;22.67;;;;;;;6.93;83.92;102314.81;5034232;28;20047;-45
2021/11/11 04:23:11;;;;;;;36.55;22.05;;;;;;;6.94;83.21;102313.75;5034109;28;20077;-48
2021/11/11 04:25:50;;;;;;;35.60;22.33;;;;;;;6.93;82.94;102312.09;5034537;28;20477;-47
2021/11/11 04:30:57;;;;;;;36.95;22.67;;;;;;;6.83;83.67;102302.50;5034014;28;20052;-48
2021/11/11 04:33:28;;;;;;;36.40;22.17;;;;;;;6.82;83.40;102297.28;5032833;28;20049;-49
2021/11/11 04:36:00;;;;;;;36.72;22.92;;;;;;;6.80;83.45;102300.19;5032675;28;20049;-48
2021/11/11 04:38:41;;;;;;;37.47;23.00;;;;;;;6.79;83.16;102300.41;5034220;28;20087;-48
2021/11/11 04:44:03;;;;;;;31.58;22.23;;;;;;;6.74;84.24;102308.31;5035514;28;20042;-49
2021/11/11 04:51:54;;;;;;;35.22;23.23;;;;;;;6.83;83.68;102323.31;5034211;28;20148;-48
2021/11/11 05:03:06;;;;;;;39.35;23.52;;;;;;;6.76;83.55;102323.31;5034064;28;20095;-46
2021/11/11 05:05:35;;;;;;;36.40;23.80;;;;;;;6.74;83.54;102325.41;5032002;28;20104;-49
2021/11/11 05:08:03;;;;;;;37.20;23.60;;;;;;;6.75;83.24;102331.66;5034095;28;20415;-48
2021/11/11 05:10:31;;;;;;;37.10;24.70;;;;;;;6.74;83.52;102330.81;5034592;28;20045;-47
2021/11/11 05:13:00;;;;;;;39.33;23.80;;;;;;;6.75;83.62;102329.78;5033460;28;20381;-50
2021/11/11 05:15:29;;;;;;;36.13;23.48;;;;;;;6.75;83.48;102327.06;5033469;28;20124;-48
2021/11/11 05:17:58;;;;;;;35.83;24.02;;;;;;;6.74;83.53;102320.00;5033101;28;20045;-47
2021/11/11 05:20:31;;;;;;;34.80;22.95;;;;;;;6.75;83.89;102320.81;5032640;28;20037;-48
2021/11/11 05:23:00;;;;;;;39.75;23.77;;;;;;;6.73;83.33;102329.13;5033394;28;20447;-44
2021/11/11 05:25:28;;;;;;;35.72;22.98;;;;;;;6.71;83.21;102333.09;5032899;28;20461;-47
2021/11/11 05:27:55;;;;;;;38.80;24.48;;;;;;;6.72;83.59;102326.66;5033501;28;20056;-47
2021/11/11 05:30:24;;;;;;;42.28;23.35;;;;;;;6.73;83.67;102318.28;5033368;28;20058;-48
2021/11/11 05:32:54;;;;;;;38.85;25.15;;;;;;;6.70;83.00;102323.31;5033030;28;20141;-49
2021/11/11 05:35:25;;;;;;;45.13;26.10;;;;;;;6.65;83.06;102325.81;5033183;28;20404;-49
2021/11/11 05:37:54;;;;;;;42.72;24.45;;;;;;;6.64;83.60;102333.09;5031763;28;20084;-48
2021/11/11 05:40:23;;;;;;;39.80;23.65;;;;;;;6.63;83.43;102328.69;5033229;28;20049;-46
2021/11/11 05:42:52;;;;;;;44.03;27.00;;;;;;;6.61;83.97;102330.78;5032806;28;20099;-45
2021/11/11 05:45:22;;;;;;;43.67;26.90;;;;;;;6.58;83.61;102337.44;5032781;28;20092;-49
2021/11/11 05:47:55;;;;;;;41.00;27.02;;;;;;;6.54;83.58;102335.34;5031488;28;20389;-48
2021/11/11 05:50:23;;;;;;;39.63;24.92;;;;;;;6.47;83.60;102335.34;5032959;28;20498;-45
2021/11/11 05:52:51;;;;;;;38.17;23.92;;;;;;;6.48;84.09;102330.75;5032453;28;20044;-49
2021/11/11 05:55:20;;;;;;;37.60;24.73;;;;;;;6.48;84.04;102331.59;5032638;28;20058;-49
2021/11/11 05:57:48;;;;;;;44.00;25.77;;;;;;;6.46;84.02;102335.53;5031594;28;20042;-51
2021/11/11 06:00:19;;;;;;;38.33;25.90;;;;;;;6.47;84.08;102340.75;5032978;28;20068;-49
2021/11/11 06:02:58;;;;;;;45.20;26.15;;;;;;;6.45;84.12;102336.59;5032877;28;20068;-48
2021/11/11 06:05:26;;;;;;;41.30;26.40;;;;;;;6.45;84.33;102340.13;5032648;28;20042;-48
2021/11/11 06:07:57;;;;;;;42.55;25.70;;;;;;;6.45;83.93;102348.25;5031786;28;20497;-46
2021/11/11 06:10:24;;;;;;;41.42;26.17;;;;;;;6.45;83.93;102352.81;5033544;28;20033;-49
2021/11/11 06:12:52;;;;;;;31.05;21.08;;;;;;;6.44;83.91;102346.56;5033331;28;20044;-49
2021/11/11 06:15:20;;;;;;;37.67;24.17;;;;;;;6.46;83.79;102352.59;5032233;28;20506;-49
2021/11/11 06:17:52;;;;;;;30.60;20.25;;;;;;;6.47;83.09;102361.56;5033436;28;20053;-46
2021/11/11 06:20:27;;;;;;;38.47;24.92;;;;;;;6.46;83.28;102360.72;5031389;28;20056;-50
2021/11/11 06:22:55;;;;;;;44.72;24.92;;;;;;;6.44;83.27;102361.97;5032039;28;20045;-46
2021/11/11 06:25:23;;;;;;;37.97;24.83;;;;;;;6.42;83.41;102361.34;5014099;28;20060;-51
2021/11/11 06:27:55;;;;;;;39.15;25.02;;;;;;;6.36;83.22;102365.69;5032021;28;20053;-49
2021/11/11 06:30:24;;;;;;;41.95;25.08;;;;;;;6.33;83.50;102371.53;5031871;28;20037;-47
2021/11/11 06:32:52;;;;;;;43.33;24.90;;;;;;;6.28;83.72;102380.25;5031000;28;20579;-49
2021/11/11 06:35:31;;;;;;;40.15;24.17;;;;;;;6.22;83.59;102378.31;5032119;28;20053;-50
2021/11/11 06:38:00;;;;;;;39.83;23.73;;;;;;;6.17;84.19;102381.63;5032271;28;20045;-46
2021/11/11 06:40:30;;;;;;;39.30;23.60;;;;;;;6.22;84.75;102377.50;5032660;28;20049;-49
2021/11/11 06:42:59;;;;;;;38.83;23.48;;;;;;;6.26;84.62;102390.44;5033070;28;20507;-50
2021/11/11 06:45:33;;;;;;;38.70;24.33;;;;;;;6.31;83.86;102390.66;5033291;28;20042;-49
2021/11/11 06:48:01;;;;;;;37.33;23.90;;;;;;;6.34;84.34;102390.25;5032750;28;20038;-50
2021/11/11 06:50:28;;;;;;;42.40;23.85;;;;;;;6.36;83.81;102384.66;5032275;28;20053;-50
2021/11/11 06:52:56;;;;;;;34.65;22.30;;;;;;;6.36;83.70;102393.59;5032564;28;20562;-48
2021/11/11 06:55:24;;;;;;;39.75;23.70;;;;;;;6.36;83.84;102392.75;5032704;28;20064;-46
2021/11/11 06:57:51;;;;;;;36.78;23.95;;;;;;;6.33;83.53;102394.00;5032376;28;20427;-50
2021/11/11 07:00:21;;;;;;;39.00;24.90;;;;;;;6.30;83.76;102399.81;5029401;28;20470;-49
2021/11/11 07:02:49;;;;;;;37.92;24.90;;;;;;;6.30;84.23;102399.81;5029970;28;20416;-50
2021/11/11 07:05:20;;;;;;;38.80;23.50;;;;;;;6.32;84.31;102397.72;5030536;28;20485;-46
2021/11/11 07:07:50;;;;;;;40.22;23.17;;;;;;;6.34;84.39;102394.84;4334855;28;10000746;-49
2021/11/11 07:10:18;;;;;;;39.75;24.90;;;;;;;6.34;83.88;102397.53;5029918;28;20072;-48
2021/11/11 07:12:46;;;;;;;41.20;25.23;;;;;;;6.33;84.59;102399.41;5027892;28;20037;-51
2021/11/11 07:15:15;;;;;;;38.65;22.85;;;;;;;6.36;84.51;102398.19;5030303;28;20616;-50
2021/11/11 07:17:43;;;;;;;39.53;23.83;;;;;;;6.36;84.21;102407.13;5029886;28;20049;-50
2021/11/11 07:20:14;;;;;;;36.40;23.75;;;;;;;6.35;84.29;102405.47;5025395;28;20041;-50
2021/11/11 07:22:43;;;;;;;39.20;23.42;;;;;;;6.36;84.45;102404.41;5029902;28;20507;-51
2021/11/11 07:25:12;;;;;;;38.85;25.33;;;;;;;6.37;84.16;102399.84;5030493;28;20042;-51
2021/11/11 07:27:40;;;;;;;40.90;23.75;;;;;;;6.37;84.41;102400.69;5017116;28;20049;-53
2021/11/11 07:30:14;;;;;;;41.40;23.80;;;;;;;6.38;84.66;102401.53;5013987;28;20033;-47
2021/11/11 07:32:42;;;;;;;42.85;24.98;;;;;;;6.38;84.85;102405.06;5013339;28;20428;-50
2021/11/11 07:35:11;;;;;;;36.95;22.90;;;;;;;6.42;84.09;102410.06;5013637;28;20484;-48
2021/11/11 07:37:40;;;;;;;36.55;23.98;;;;;;;6.43;84.88;102409.03;5013848;28;20041;-47
2021/11/11 07:40:10;;;;;;;41.25;24.80;;;;;;;6.43;84.71;102407.16;5021329;28;20049;-47
2021/11/11 07:42:39;;;;;;;37.78;24.00;;;;;;;6.40;84.63;102404.88;5030010;28;20053;-50
2021/11/11 07:45:10;;;;;;;35.10;23.13;;;;;;;6.37;84.69;102408.81;5027563;28;20125;-50
2021/11/11 07:47:39;;;;;;;39.05;25.08;;;;;;;6.36;84.89;102409.00;5030171;28;20045;-53
2021/11/11 07:50:08;;;;;;;37.78;24.80;;;;;;;6.33;84.88;102399.41;5029414;28;20168;-51
2021/11/11 07:52:37;;;;;;;41.70;24.52;;;;;;;6.35;85.27;102408.19;5029307;28;20041;-51
2021/11/11 07:55:07;;;;;;;38.65;24.02;;;;;;;6.35;85.38;102404.63;5027112;28;20151;-50
2021/11/11 07:57:35;;;;;;;39.78;22.73;;;;;;;6.39;85.42;102405.88;5031706;28;20037;-51
2021/11/11 08:00:08;;;;;;;35.72;22.45;;;;;;;6.45;85.75;102406.97;5031161;28;20049;-49
2021/11/11 08:02:40;;;;;;;37.72;23.65;;;;;;;6.48;85.63;102404.69;5031464;28;20109;-50
2021/11/11 08:05:11;;;;;;;38.60;24.00;;;;;;;6.50;85.17;102402.63;5031025;28;20091;-50
2021/11/11 08:07:39;;;;;;;37.90;24.23;;;;;;;6.52;85.03;102405.13;5031728;28;20048;-49
2021/11/11 08:10:07;;;;;;;45.42;23.30;;;;;;;6.53;85.58;102409.50;5030210;28;20030;-49
2021/11/11 08:12:35;;;;;;;42.03;24.40;;;;;;;6.53;84.94;102412.22;5020453;28;20084;-47
2021/11/11 08:15:03;;;;;;;36.67;23.38;;;;;;;6.48;85.23;102410.09;5031332;28;20046;-48
2021/11/11 08:17:31;;;;;;;39.30;24.13;;;;;;;6.47;86.38;102410.28;5032048;28;20048;-48
2021/11/11 08:19:58;;;;;;;40.67;24.02;;;;;;;6.50;86.34;102407.19;5031138;28;20046;-50
2021/11/11 08:22:27;;;;;;;35.90;22.83;;;;;;;6.52;86.07;102408.66;5030839;28;20041;-49
2021/11/11 08:24:55;;;;;;;37.83;24.48;;;;;;;6.54;86.06;102406.59;5030154;28;20037;-49
2021/11/11 08:27:24;;;;;;;37.03;24.13;;;;;;;6.55;86.42;102412.84;5031774;28;20042;-48
2021/11/11 08:29:52;;;;;;;35.70;22.67;;;;;;;6.56;86.47;102409.09;5032011;28;20443;-49
2021/11/11 08:32:20;;;;;;;35.33;22.55;;;;;;;6.59;86.48;102408.69;5031072;28;20038;-48
2021/11/11 08:34:49;;;;;;;37.13;24.00;;;;;;;6.59;86.20;102405.97;5031611;28;20041;-50
2021/11/11 08:37:18;;;;;;;35.35;22.90;;;;;;;6.60;86.55;102411.19;5031228;28;20045;-50
2021/11/11 08:39:46;;;;;;;38.28;23.88;;;;;;;6.61;86.41;102406.59;5031757;28;20042;-48
2021/11/11 08:42:14;;;;;;;36.70;22.85;;;;;;;6.59;86.40;102403.25;5031497;28;20038;-48
2021/11/11 08:44:43;;;;;;;32.47;22.77;;;;;;;6.58;87.04;102409.72;5030230;28;20069;-50
2021/11/11 08:47:14;;;;;;;41.53;24.23;;;;;;;6.55;86.74;102408.25;5029032;28;20057;-50
2021/11/11 08:49:45;;;;;;;35.55;22.70;;;;;;;6.56;87.90;102403.66;5030335;28;20042;-49
2021/11/11 08:52:14;;;;;;;33.92;20.88;;;;;;;6.59;87.83;102395.13;5030971;28;20523;-50
2021/11/11 08:54:42;;;;;;;35.38;21.17;;;;;;;6.61;87.68;102395.78;5031094;28;20073;-49
2021/11/11 08:57:10;;;;;;;35.17;22.70;;;;;;;6.58;87.51;102399.72;5034014;28;20041;-50
2021/11/11 08:59:55;;;;;;;35.85;22.35;;;;;;;6.56;88.08;102400.97;5034475;28;20105;-49
2021/11/11 09:02:23;;;;;;;41.10;23.77;;;;;;;6.53;89.54;102398.66;5033278;28;20481;-48
2021/11/11 09:04:52;;;;;;;36.47;23.50;;;;;;;6.49;89.49;102402.81;5031540;28;20037;-50
2021/11/11 09:07:20;;;;;;;43.47;22.98;;;;;;;6.44;90.47;102394.47;5032730;28;20050;-49
2021/11/11 09:09:47;;;;;;;41.10;25.58;;;;;;;6.44;90.73;102395.28;5023082;28;20046;-49
2021/11/11 09:12:15;;;;;;;40.03;24.92;;;;;;;6.43;91.25;102403.63;5034785;28;20500;-49
2021/11/11 09:14:43;;;;;;;41.25;25.20;;;;;;;6.47;90.92;102410.28;5034540;28;20044;-48
2021/11/11 09:17:10;;;;;;;35.28;23.73;;;;;;;6.54;91.44;102419.28;5034407;28;20424;-50
2021/11/11 09:19:39;;;;;;;38.70;23.05;;;;;;;6.58;90.79;102423.25;5033825;28;20040;-47
2021/11/11 09:22:07;;;;;;;37.88;22.50;;;;;;;6.63;91.19;102428.91;5034375;28;20110;-49
2021/11/11 09:24:35;;;;;;;39.42;24.15;;;;;;;6.71;90.71;102433.31;5034809;28;20038;-49
2021/11/11 09:27:04;;;;;;;40.00;24.02;;;;;;;6.77;91.29;102437.94;5034441;28;20077;-50
2021/11/11 09:29:32;;;;;;;36.88;23.08;;;;;;;6.80;90.34;102438.34;5033545;28;20065;-49
2021/11/11 09:31:59;;;;;;;38.83;23.23;;;;;;;6.82;90.14;102435.44;5034036;28;20046;-49
2021/11/11 09:34:27;;;;;;;37.20;24.15;;;;;;;6.83;90.16;102432.53;5033918;28;20043;-50
2021/11/11 09:36:54;;;;;;;36.28;19.15;;;;;;;6.89;90.66;102424.63;5034182;28;20037;-51
2021/11/11 09:39:22;;;;;;;27.92;18.38;;;;;;;6.93;90.79;102426.75;5033965;28;20076;-49
2021/11/11 09:41:52;;;;;;;34.00;22.10;;;;;;;6.95;90.91;102431.94;5034058;28;20060;-49
2021/11/11 09:44:24;;;;;;;37.38;22.58;;;;;;;6.96;90.24;102436.31;5033178;28;20041;-50
2021/11/11 09:46:53;;;;;;;39.17;23.35;;;;;;;6.96;90.68;102436.31;5033420;28;20076;-49
2021/11/11 09:49:21;;;;;;;34.75;22.65;;;;;;;6.97;90.81;102438.81;5033601;28;20051;-52
2021/11/11 09:51:51;;;;;;;30.42;20.27;;;;;;;7.03;90.82;102431.75;5032738;28;20041;-49
2021/11/11 09:59:43;;;;;;;33.88;17.42;;;;;;;7.20;92.04;102435.75;5033144;28;20496;-49
2021/11/11 10:02:11;;;;;;;34.33;21.38;;;;;;;7.21;91.36;102432.00;5033741;28;20511;-50
2021/11/11 10:04:39;;;;;;;32.20;19.92;;;;;;;7.21;90.44;102434.69;5033369;28;20120;-47
2021/11/11 10:07:07;;;;;;;28.23;17.63;;;;;;;7.26;91.60;102431.38;5033025;28;20049;-48
2021/11/11 10:09:41;;;;;;;31.45;19.58;;;;;;;7.29;91.18;102430.13;5033864;28;20069;-51
2021/11/11 10:12:21;;;;;;;29.70;17.92;;;;;;;7.33;91.76;102429.50;5033686;28;20037;-49
2021/11/11 10:14:50;;;;;;;30.33;19.27;;;;;;;7.32;90.95;102416.19;5033484;28;20128;-49
2021/11/11 10:17:19;;;;;;;26.13;16.08;;;;;;;7.33;91.49;102415.13;5033188;28;20049;-49
2021/11/11 10:19:54;;;;;;;34.08;22.38;;;;;;;7.33;91.16;102420.53;5032149;28;20049;-50
2021/11/11 10:22:31;;;;;;;36.65;23.00;;;;;;;7.34;90.66;102427.66;5033256;28;20069;-50
2021/11/11 10:25:02;;;;;;;33.58;21.67;;;;;;;7.36;90.82;102428.25;5033563;28;20040;-49
2021/11/11 10:28:01;;;;;;;34.10;21.88;;;;;;;7.32;90.71;102427.84;5033673;28;20427;-50
2021/11/11 10:30:30;;;;;;;35.78;22.52;;;;;;;7.33;90.89;102428.69;5031883;28;20107;-46
2021/11/11 10:33:12;;;;;;;35.13;22.73;;;;;;;7.30;91.79;102427.22;5032918;28;20056;-49
2021/11/11 10:35:43;;;;;;;37.25;21.92;;;;;;;7.31;91.48;102430.75;5033117;28;20058;-50
2021/11/11 10:38:16;;;;;;;36.38;21.60;;;;;;;7.36;91.77;102436.41;5033428;28;20052;-48
2021/11/11 10:40:48;;;;;;;27.60;18.52;;;;;;;7.42;91.26;102427.44;5032813;28;20099;-49
2021/11/11 10:43:21;;;;;;;37.72;22.50;;;;;;;7.44;91.76;102438.94;5033345;28;20488;-49
2021/11/11 10:45:51;;;;;;;32.80;20.52;;;;;;;7.45;91.99;102429.72;5032937;28;20041;-52
2021/11/11 10:48:23;;;;;;;29.70;18.23;;;;;;;7.51;92.07;102433.50;5032654;28;20092;-49
2021/11/11 10:50:53;;;;;;;28.80;18.25;;;;;;;7.55;92.18;102435.59;5032928;28;20041;-46
2021/11/11 10:53:24;;;;;;;31.98;20.42;;;;;;;7.56;92.35;102431.84;5032610;28;20044;-50
2021/11/11 10:55:54;;;;;;;34.10;22.75;;;;;;;7.57;92.08;102432.66;5032982;28;20381;-49
2021/11/11 10:58:31;;;;;;;33.22;22.45;;;;;;;7.53;91.96;102432.25;5032150;28;20033;-48
2021/11/11 11:01:04;;;;;;;;;;;;;;;7.52;92.31;102430.56;5025074;28;20069;-49
2021/11/11 11:03:38;;;;;;;40.67;23.10;;;;;;;7.51;92.14;102428.91;5032847;28;19948;-50
2021/11/11 11:06:10;;;;;;;36.83;21.60;;;;;;;7.50;92.75;102421.81;5032626;28;20095;-48
2021/11/11 11:08:40;;;;;;;38.17;22.85;;;;;;;7.53;92.51;102423.25;5032348;28;20695;-52
2021/11/11 11:11:15;;;;;;;38.33;22.80;;;;;;;7.53;92.07;102426.84;5032858;28;20037;-50
2021/11/11 11:13:52;;;;;;;35.70;22.52;;;;;;;7.54;92.67;102417.63;5032061;28;20041;-49
2021/11/11 11:16:20;;;;;;;;;;;;;;;7.56;92.93;102429.13;5032640;28;20498;-49
2021/11/11 11:18:57;;;;;;;40.78;24.35;;;;;;;7.57;92.29;102421.81;5031194;28;19925;-48
2021/11/11 11:21:31;;;;;;;30.70;20.00;;;;;;;7.59;92.97;102422.44;5032019;28;20113;-48
2021/11/11 11:24:01;;;;;;;32.85;19.45;;;;;;;7.63;92.93;102416.41;5031157;28;20056;-49
2021/11/11 11:26:31;;;;;;;30.63;17.23;;;;;;;7.68;92.06;102413.06;5032486;28;20076;-51
2021/11/11 11:29:09;;;;;;;34.30;20.58;;;;;;;7.71;91.83;102401.78;5031681;28;20057;-50
2021/11/11 11:31:48;;;;;;;34.20;20.05;;;;;;;7.74;91.68;102404.06;5032047;28;20054;-48
2021/11/11 11:34:20;;;;;;;35.03;20.90;;;;;;;7.77;92.38;102394.66;5032375;28;20037;-49
2021/11/11 11:36:54;;;;;;;26.25;17.30;;;;;;;7.78;91.93;102397.19;5031997;28;20121;-48
2021/11/11 11:39:40;;;;;;;30.05;18.17;;;;;;;7.84;92.26;102395.50;5031909;28;20128;-49
2021/11/11 11:42:13;;;;;;;30.15;17.88;;;;;;;7.84;91.80;102395.50;4328230;28;10000144;-49
2021/11/11 11:44:41;;;;;;;30.05;19.08;;;;;;;7.87;92.75;102393.22;5028566;28;20386;-49
2021/11/11 11:47:28;;;;;;;33.95;19.00;;;;;;;7.92;92.99;102398.00;5030126;28;20538;-50
2021/11/11 11:50:00;;;;;;;;;;;;;;;7.94;92.59;102397.78;5030052;28;20571;-49
2021/11/11 11:52:30;;;;;;;28.98;16.45;;;;;;;7.98;93.28;102396.31;5028730;28;19932;-49
2021/11/11 11:57:42;;;;;;;33.40;18.35;;;;;;;8.02;93.87;102398.41;5029475;28;20050;-48
2021/11/11 12:01:14;;;;;;;34.00;17.98;;;;;;;8.04;93.71;102401.72;5028942;28;20041;-48